Time;durP1;ratioP1;P1;durP2;ratioP2;P2;SDS_P1;SDS_P2;PMS_P1;PMS_P2;Temp;Humidity;BMP_temperature;BMP_pressure;BME280_temperature;BME280_humidity;BME280_pressure;Samples;Min_cycle;Max_cycle;Signal;HPM_P1;HPM_P2
2023/04/11 00:02:13;;;;;;;5.80;4.07;;;;;;;9.15;nan;-24072.56;4988636;28;20247;-67
2023/04/11 00:04:38;;;;;;;5.97;4.07;;;;;;;9.22;nan;-24074.69;4977672;28;20649;-65
2023/04/11 00:07:06;;;;;;;7.33;4.80;;;;;;;9.14;nan;-24072.44;4988478;28;20705;-65
2023/04/11 00:09:32;;;;;;;8.90;4.70;;;;;;;8.83;nan;-24063.66;4977269;28;20193;-66
2023/04/11 00:11:57;;;;;;;8.43;4.90;;;;;;;9.02;nan;-24069.03;4988378;28;20555;-67
2023/04/11 00:14:23;;;;;;;7.27;4.23;;;;;;;8.51;nan;-24054.75;4977931;28;20644;-65
2023/04/11 00:16:52;;;;;;;8.13;4.83;;;;;;;9.03;nan;-24069.19;4987789;28;20191;-66
2023/04/11 00:19:22;;;;;;;6.73;3.90;;;;;;;8.69;nan;-24059.69;4978617;28;20181;-65
2023/04/11 00:21:48;;;;;;;9.10;4.73;;;;;;;8.99;nan;-24068.19;4987493;28;20196;-65
2023/04/11 00:24:13;;;;;;;7.07;4.17;;;;;;;8.76;nan;-24061.81;4978713;28;20212;-66
2023/04/11 00:26:39;;;;;;;7.60;4.63;;;;;;;9.02;nan;-24069.03;4985660;28;20220;-66
2023/04/11 00:29:04;;;;;;;6.23;4.00;;;;;;;8.98;nan;-24067.75;4980193;28;20205;-64
2023/04/11 00:31:30;;;;;;;8.77;4.70;;;;;;;9.02;nan;-24068.91;4984952;28;20181;-66
2023/04/11 00:33:55;;;;;;;9.30;5.07;;;;;;;8.90;nan;-24065.66;4981235;28;20181;-65
2023/04/11 00:36:21;;;;;;;7.10;4.07;;;;;;;8.95;nan;-24066.91;4983629;28;20378;-65
2023/04/11 00:38:46;;;;;;;8.13;5.00;;;;;;;8.63;nan;-24058.00;4982192;28;20229;-66
2023/04/11 00:41:12;;;;;;;6.67;3.53;;;;;;;8.69;nan;-24059.84;4982792;28;20667;-64
2023/04/11 00:43:37;;;;;;;6.90;4.27;;;;;;;8.99;nan;-24068.03;4983306;28;20186;-66
2023/04/11 00:46:03;;;;;;;6.80;4.40;;;;;;;8.83;nan;-24063.81;4982856;28;20711;-66
2023/04/11 00:48:30;;;;;;;9.27;4.53;;;;;;;8.51;nan;-24054.75;4985145;28;20221;-64
2023/04/11 00:50:56;;;;;;;7.23;4.53;;;;;;;8.92;nan;-24066.06;4982780;28;20648;-66
2023/04/11 00:53:22;;;;;;;6.93;4.10;;;;;;;8.61;nan;-24057.56;4982582;28;20232;-66
2023/04/11 00:55:49;;;;;;;6.90;3.73;;;;;;;8.67;nan;-24059.13;4982637;28;20281;-64
2023/04/11 00:58:15;;;;;;;7.70;4.30;;;;;;;8.60;nan;-24057.16;4982652;28;20736;-64
2023/04/11 01:00:41;;;;;;;7.23;4.60;;;;;;;8.55;nan;-24055.75;4982447;28;20209;-66
2023/04/11 01:03:07;;;;;;;7.13;4.07;;;;;;;8.93;nan;-24066.50;4982699;28;20556;-66
2023/04/11 01:05:34;;;;;;;5.97;4.50;;;;;;;8.58;nan;-24056.59;4977501;28;20186;-64
2023/04/11 01:08:00;;;;;;;8.77;4.67;;;;;;;8.85;nan;-24064.38;4983309;28;20181;-65
2023/04/11 01:10:29;;;;;;;7.50;4.43;;;;;;;8.30;nan;-24048.81;4979891;28;20203;-66
2023/04/11 01:12:57;;;;;;;9.80;4.20;;;;;;;8.73;nan;-24060.97;4983892;28;20205;-64
2023/04/11 01:15:23;;;;;;;7.93;4.63;;;;;;;8.69;nan;-24059.84;4979729;28;20181;-65
2023/04/11 01:17:48;;;;;;;6.87;4.13;;;;;;;8.58;nan;-24056.59;4984018;28;20248;-65
2023/04/11 01:20:14;;;;;;;6.53;3.53;;;;;;;8.66;nan;-24059.00;4979135;28;20184;-66
2023/04/11 01:22:41;;;;;;;7.40;4.40;;;;;;;8.66;nan;-24058.84;4984443;28;20203;-64
2023/04/11 01:25:07;;;;;;;6.60;4.37;;;;;;;8.86;nan;-24064.66;4979114;28;20207;-65
2023/04/11 01:27:33;;;;;;;8.00;4.60;;;;;;;8.91;nan;-24065.78;4984569;28;20272;-65
2023/04/11 01:29:59;;;;;;;8.43;4.67;;;;;;;8.75;nan;-24061.41;4977650;28;20355;-65
2023/04/11 01:32:25;;;;;;;7.43;4.07;;;;;;;8.78;nan;-24062.25;4985642;28;20184;-66
2023/04/11 01:34:54;;;;;;;8.53;4.80;;;;;;;9.05;nan;-24069.75;4976168;28;20623;-65
2023/04/11 01:37:19;;;;;;;6.63;4.20;;;;;;;8.79;nan;-24062.66;4985580;28;20200;-65
2023/04/11 01:39:45;;;;;;;5.80;3.67;;;;;;;8.69;nan;-24059.84;4974155;28;20252;-66
2023/04/11 01:42:12;;;;;;;8.77;4.80;;;;;;;8.65;nan;-24058.72;4986716;28;20719;-66
2023/04/11 01:44:38;;;;;;;9.13;4.77;;;;;;;8.83;nan;-24063.81;4975906;28;20184;-65
2023/04/11 01:47:03;;;;;;;6.90;3.63;;;;;;;9.04;nan;-24069.59;4986408;28;20307;-65
2023/04/11 01:49:29;;;;;;;5.73;4.03;;;;;;;8.71;nan;-24060.25;4977128;28;20209;-66
2023/04/11 01:51:55;;;;;;;8.10;4.03;;;;;;;8.67;nan;-24059.28;4986474;28;20192;-66
2023/04/11 01:54:20;;;;;;;8.43;4.57;;;;;;;9.15;nan;-24072.72;4976485;28;20649;-65
2023/04/11 01:56:46;;;;;;;6.23;3.90;;;;;;;8.95;nan;-24066.91;4985570;28;20566;-65
2023/04/11 01:59:12;;;;;;;7.53;4.27;;;;;;;8.78;nan;-24062.38;4977929;28;20203;-66
2023/04/11 02:01:37;;;;;;;6.00;3.63;;;;;;;8.92;nan;-24066.22;4984765;28;20187;-65
2023/04/11 02:04:02;;;;;;;7.83;3.93;;;;;;;9.05;nan;-24069.75;4978490;28;20244;-66
2023/04/11 02:06:28;;;;;;;6.63;3.87;;;;;;;8.75;nan;-24061.41;4983510;28;20189;-65
2023/04/11 02:08:53;;;;;;;7.63;4.37;;;;;;;9.10;nan;-24071.16;4979952;28;20710;-65
2023/04/11 02:11:19;;;;;;;8.90;4.50;;;;;;;8.68;nan;-24059.56;4982065;28;20243;-65
2023/04/11 02:13:45;;;;;;;8.97;4.77;;;;;;;8.66;nan;-24059.00;4981031;28;20567;-65
2023/04/11 02:16:16;;;;;;;6.87;4.50;;;;;;;8.93;nan;-24066.50;4981100;28;20219;-65
2023/04/11 02:18:44;;;;;;;8.80;4.83;;;;;;;8.61;nan;-24057.56;4971820;28;20209;-66
2023/04/11 02:21:09;;;;;;;8.77;4.33;;;;;;;8.74;nan;-24061.25;4981472;28;20269;-65
2023/04/11 02:23:35;;;;;;;8.43;4.53;;;;;;;8.90;nan;-24065.50;4981910;28;20273;-66
2023/04/11 02:26:01;;;;;;;8.27;4.20;;;;;;;8.65;nan;-24058.72;4981515;28;20177;-64
2023/04/11 02:28:26;;;;;;;7.47;4.77;;;;;;;8.88;nan;-24065.22;4981844;28;20663;-68
2023/04/11 02:30:52;;;;;;;9.33;4.70;;;;;;;9.01;nan;-24068.63;4981305;28;20271;-65
2023/04/11 02:33:18;;;;;;;7.00;4.50;;;;;;;8.91;nan;-24065.78;4981152;28;20571;-65
2023/04/11 02:35:45;;;;;;;7.63;4.43;;;;;;;8.84;nan;-24064.09;4981586;28;20277;-65
2023/04/11 02:38:10;;;;;;;7.50;4.50;;;;;;;9.06;nan;-24070.03;4981574;28;20200;-65
2023/04/11 02:40:36;;;;;;;8.10;4.43;;;;;;;8.69;nan;-24059.69;4980144;28;20173;-65
2023/04/11 02:43:01;;;;;;;5.93;3.93;;;;;;;8.97;nan;-24067.63;4982125;28;20260;-65
2023/04/11 02:45:26;;;;;;;7.67;4.70;;;;;;;8.82;nan;-24063.38;4978376;28;20683;-66
2023/04/11 02:47:52;;;;;;;8.73;4.77;;;;;;;8.90;nan;-24065.66;4982792;28;20233;-65
2023/04/11 02:50:17;;;;;;;7.17;4.03;;;;;;;8.62;nan;-24057.72;4981656;28;20239;-65
2023/04/11 02:52:44;;;;;;;7.17;4.37;;;;;;;8.88;nan;-24065.06;4990257;28;20208;-65
2023/04/11 02:55:10;;;;;;;8.80;4.70;;;;;;;8.97;nan;-24067.47;4982851;28;20176;-66
2023/04/11 02:57:35;;;;;;;10.70;5.03;;;;;;;8.75;nan;-24061.53;4987517;28;20629;-65
2023/04/11 03:00:03;;;;;;;6.80;4.30;;;;;;;8.73;nan;-24060.97;4981571;28;20643;-65
2023/04/11 03:02:29;;;;;;;10.67;4.23;;;;;;;8.52;nan;-24054.88;4987980;28;20188;-65
2023/04/11 03:04:54;;;;;;;8.13;5.10;;;;;;;8.68;nan;-24059.56;4980367;28;20192;-65
2023/04/11 03:07:20;;;;;;;7.47;4.43;;;;;;;8.40;nan;-24051.78;4989150;28;20254;-65
2023/04/11 03:09:45;;;;;;;9.57;4.10;;;;;;;8.43;nan;-24052.47;4979295;28;21288;-66
2023/04/11 03:12:10;;;;;;;8.53;4.80;;;;;;;8.41;nan;-24052.06;4989456;28;20188;-66
2023/04/11 03:14:36;;;;;;;6.13;3.87;;;;;;;8.77;nan;-24061.97;4978545;28;20181;-65
2023/04/11 03:17:01;;;;;;;7.73;4.37;;;;;;;8.57;nan;-24056.44;4989063;28;20196;-66
2023/04/11 03:19:27;;;;;;;6.53;4.27;;;;;;;8.52;nan;-24055.03;4979067;28;20185;-66
2023/04/11 03:21:52;;;;;;;8.20;4.63;;;;;;;8.77;nan;-24061.97;4989395;28;20189;-66
2023/04/11 03:24:18;;;;;;;8.20;4.23;;;;;;;8.74;nan;-24061.25;4979543;28;20559;-65
2023/04/11 03:26:43;;;;;;;8.93;4.80;;;;;;;8.71;nan;-24060.41;4988563;28;20255;-67
2023/04/11 03:29:08;;;;;;;8.47;4.17;;;;;;;8.72;nan;-24060.56;4980675;28;20240;-66
2023/04/11 03:31:34;;;;;;;6.37;4.53;;;;;;;8.61;nan;-24057.44;4986937;28;20253;-65
2023/04/11 03:33:59;;;;;;;6.90;4.53;;;;;;;8.62;nan;-24057.72;4984607;28;20611;-66
2023/04/11 03:36:28;;;;;;;7.90;4.00;;;;;;;8.11;nan;-24043.56;4987563;28;20302;-66
2023/04/11 03:38:54;;;;;;;5.80;4.00;;;;;;;8.66;nan;-24058.84;4982812;28;20189;-64
2023/04/11 03:41:19;;;;;;;7.70;4.33;;;;;;;8.25;nan;-24047.38;4984502;28;20188;-64
2023/04/11 03:43:45;;;;;;;8.47;4.27;;;;;;;8.73;nan;-24060.84;4983238;28;20185;-65
2023/04/11 03:46:10;;;;;;;7.77;4.60;;;;;;;8.63;nan;-24058.16;4983531;28;20614;-65
2023/04/11 03:48:36;;;;;;;6.57;4.07;;;;;;;8.46;nan;-24053.34;4984988;28;20232;-66
2023/04/11 03:51:02;;;;;;;5.83;4.07;;;;;;;8.49;nan;-24054.03;4984776;28;20687;-66
2023/04/11 03:53:28;;;;;;;6.10;4.03;;;;;;;8.56;nan;-24056.03;4986525;28;20209;-66
2023/04/11 03:55:54;;;;;;;7.47;3.67;;;;;;;8.53;nan;-24055.31;4983758;28;20181;-65
2023/04/11 03:58:20;;;;;;;6.30;3.97;;;;;;;8.65;nan;-24058.72;4984242;28;20268;-65
2023/04/11 04:00:46;;;;;;;5.93;3.30;;;;;;;8.57;nan;-24056.44;4983005;28;20184;-66
2023/04/11 04:03:12;;;;;;;5.73;3.83;;;;;;;8.25;nan;-24047.38;4983461;28;20177;-64
2023/04/11 04:05:40;;;;;;;5.20;3.33;;;;;;;8.36;nan;-24050.66;4985330;28;20223;-66
2023/04/11 04:08:05;;;;;;;6.10;3.70;;;;;;;8.48;nan;-24053.91;4994937;28;20165;-65
2023/04/11 04:10:30;;;;;;;4.23;3.17;;;;;;;8.76;nan;-24061.69;4994723;28;20714;-65
2023/04/11 04:12:56;;;;;;;5.53;3.50;;;;;;;8.78;nan;-24062.25;4994735;28;20601;-64
2023/04/11 04:15:21;;;;;;;5.23;3.37;;;;;;;8.71;nan;-24060.41;4994075;28;20177;-66
2023/04/11 04:17:47;;;;;;;5.07;3.40;;;;;;;8.49;nan;-24054.03;4994709;28;20247;-66
2023/04/11 04:20:12;;;;;;;4.57;2.83;;;;;;;8.80;nan;-24062.81;4988255;28;20189;-64
2023/04/11 04:22:37;;;;;;;6.90;3.73;;;;;;;8.80;nan;-24062.81;4983101;28;20181;-66
2023/04/11 04:25:03;;;;;;;5.57;3.90;;;;;;;8.68;nan;-24059.56;4987856;28;20185;-65
2023/04/11 04:27:29;;;;;;;5.87;3.77;;;;;;;8.64;nan;-24058.28;4994633;28;20177;-65
2023/04/11 04:29:55;;;;;;;6.60;3.83;;;;;;;8.66;nan;-24058.84;4993932;28;20200;-65
2023/04/11 04:32:22;;;;;;;7.03;3.77;;;;;;;8.92;nan;-24066.06;4994439;28;20256;-67
2023/04/11 04:34:54;;;;;;;5.53;3.60;;;;;;;9.00;nan;-24068.34;4994549;28;20663;-66
2023/04/11 04:37:22;;;;;;;5.60;3.47;;;;;;;8.93;nan;-24066.50;4981164;28;20554;-66
2023/04/11 04:39:53;;;;;;;4.63;2.87;;;;;;;9.08;nan;-24070.59;4983909;28;20192;-65
2023/04/11 04:42:23;;;;;;;4.73;3.40;;;;;;;8.97;nan;-24067.47;4976196;28;20599;-70
2023/04/11 04:44:49;;;;;;;5.90;3.77;;;;;;;8.98;nan;-24067.75;4987386;28;20184;-66
2023/04/11 04:47:15;;;;;;;5.57;3.50;;;;;;;9.07;nan;-24070.31;4980137;28;20303;-70
2023/04/11 04:49:42;;;;;;;7.30;4.17;;;;;;;9.03;nan;-24069.31;4987439;28;20638;-67
2023/04/11 04:52:07;;;;;;;7.20;4.10;;;;;;;9.01;nan;-24068.63;4982428;28;20189;-65
2023/04/11 04:54:33;;;;;;;5.97;3.13;;;;;;;8.96;nan;-24067.19;4981717;28;20208;-66
2023/04/11 04:57:00;;;;;;;5.07;3.63;;;;;;;9.16;nan;-24072.84;4984849;28;20275;-67
2023/04/11 04:59:25;;;;;;;7.67;4.20;;;;;;;9.19;nan;-24073.84;4978813;28;20174;-69
2023/04/11 05:01:52;;;;;;;5.53;3.60;;;;;;;9.32;nan;-24077.53;4983036;28;20189;-66
2023/04/11 05:04:18;;;;;;;6.73;4.00;;;;;;;9.40;nan;-24079.50;4980636;28;20177;-65
2023/04/11 05:06:43;;;;;;;6.00;3.30;;;;;;;8.84;nan;-24064.09;4993052;28;20180;-65
2023/04/11 05:09:09;;;;;;;8.03;3.83;;;;;;;9.36;nan;-24078.50;4991354;28;20201;-64
2023/04/11 05:11:34;;;;;;;6.47;3.90;;;;;;;9.49;nan;-24082.03;4992916;28;20255;-66
2023/04/11 05:14:00;;;;;;;6.20;4.10;;;;;;;9.54;nan;-24083.59;4992718;28;20168;-65
2023/04/11 05:16:25;;;;;;;6.73;4.20;;;;;;;9.45;nan;-24081.06;4992847;28;20179;-65
2023/04/11 05:18:50;;;;;;;8.50;4.50;;;;;;;9.39;nan;-24079.34;4991309;28;20177;-65
2023/04/11 05:21:16;;;;;;;6.97;3.77;;;;;;;9.47;nan;-24081.63;4991401;28;20648;-65
2023/04/11 05:23:41;;;;;;;7.27;4.27;;;;;;;9.82;nan;-24091.38;4991196;28;20180;-66
2023/04/11 05:26:07;;;;;;;8.23;4.53;;;;;;;9.87;nan;-24092.63;4991694;28;20260;-66
2023/04/11 05:28:33;;;;;;;6.87;4.00;;;;;;;10.07;nan;-24098.28;4991711;28;20280;-66
2023/04/11 05:30:59;;;;;;;8.37;4.57;;;;;;;10.09;nan;-24098.84;4990895;28;20615;-66
2023/04/11 05:33:25;;;;;;;10.43;4.77;;;;;;;9.98;nan;-24095.88;4992579;28;20176;-66
2023/04/11 05:35:51;;;;;;;9.20;4.87;;;;;;;10.39;nan;-24107.19;4991637;28;20260;-65
2023/04/11 05:38:18;;;;;;;7.30;4.47;;;;;;;10.43;nan;-24108.31;4992450;28;20193;-65
2023/04/11 05:40:43;;;;;;;7.83;4.07;;;;;;;10.51;nan;-24110.56;4992086;28;20179;-66
2023/04/11 05:43:12;;;;;;;7.37;3.97;;;;;;;10.52;nan;-24111.00;4992291;28;20177;-64
2023/04/11 05:45:41;;;;;;;8.27;3.90;;;;;;;10.62;nan;-24113.81;4992038;28;20219;-66
2023/04/11 05:48:07;;;;;;;9.13;5.20;;;;;;;10.38;nan;-24107.03;4992286;28;20274;-67
2023/04/11 05:50:33;;;;;;;7.90;4.40;;;;;;;10.64;nan;-24114.25;4992056;28;20200;-66
2023/04/11 05:52:59;;;;;;;6.20;4.25;;;;;;;10.70;nan;-24115.94;4993663;28;20169;-66
2023/04/11 05:55:24;;;;;;;7.72;4.32;;;;;;;10.80;nan;-24118.63;4992133;28;20163;-64
2023/04/11 05:57:50;;;;;;;7.05;3.75;;;;;;;10.96;nan;-24123.13;4991846;28;20259;-66
2023/04/11 06:00:16;;;;;;;8.82;5.25;;;;;;;11.16;nan;-24128.75;4984186;28;20677;-65
2023/04/11 06:02:42;;;;;;;5.72;3.92;;;;;;;11.06;nan;-24125.94;4981634;28;20258;-64
2023/04/11 06:05:10;;;;;;;9.63;4.45;;;;;;;10.81;nan;-24119.03;4975941;28;20272;-65
2023/04/11 06:07:36;;;;;;;5.43;3.72;;;;;;;10.97;nan;-24123.41;4979697;28;20235;-66
2023/04/11 06:10:02;;;;;;;4.95;3.42;;;;;;;10.89;nan;-24121.16;4980436;28;20590;-67
2023/04/11 06:12:27;;;;;;;5.93;3.55;;;;;;;10.83;nan;-24119.47;4980682;28;20177;-63
2023/04/11 06:14:53;;;;;;;5.05;3.20;;;;;;;11.15;nan;-24128.34;4980883;28;20656;-66
2023/04/11 06:17:19;;;;;;;4.63;3.25;;;;;;;11.17;nan;-24128.91;4980782;28;20189;-66
2023/04/11 06:19:45;;;;;;;3.83;3.42;;;;;;;11.10;nan;-24127.06;4980553;28;20184;-65
2023/04/11 06:22:10;;;;;;;4.07;3.38;;;;;;;11.08;nan;-24126.66;4980973;28;20184;-66
2023/04/11 06:24:38;;;;;;;6.70;3.75;;;;;;;10.63;nan;-24114.09;4979445;28;20200;-65
2023/04/11 06:27:04;;;;;;;8.50;3.75;;;;;;;10.74;nan;-24116.91;4980723;28;20267;-65
2023/04/11 06:29:30;;;;;;;6.28;3.65;;;;;;;10.75;nan;-24117.19;4980141;28;20232;-64
2023/04/11 06:31:56;;;;;;;6.00;3.80;;;;;;;11.07;nan;-24126.22;4980621;28;20641;-66
2023/04/11 06:34:24;;;;;;;6.45;3.58;;;;;;;11.10;nan;-24127.06;4979658;28;20184;-66
2023/04/11 06:36:50;;;;;;;5.78;3.10;;;;;;;11.22;nan;-24130.47;4980951;28;20182;-67
2023/04/11 06:39:15;;;;;;;4.45;2.90;;;;;;;11.06;nan;-24126.09;4978765;28;20671;-64
2023/04/11 06:41:41;;;;;;;4.32;3.08;;;;;;;11.26;nan;-24131.59;4981288;28;20189;-66
2023/04/11 06:44:07;;;;;;;6.50;3.70;;;;;;;11.01;nan;-24124.69;4977161;28;20557;-66
2023/04/11 06:46:32;;;;;;;4.82;2.95;;;;;;;11.37;nan;-24134.69;4981903;28;20193;-65
2023/04/11 06:48:58;;;;;;;5.80;3.00;;;;;;;11.03;nan;-24125.25;4977650;28;20204;-64
2023/04/11 06:51:25;;;;;;;6.60;3.60;;;;;;;11.46;nan;-24137.22;4984201;28;20184;-65
2023/04/11 06:53:59;;;;;;;3.85;2.70;;;;;;;11.21;nan;-24130.19;4992883;28;20239;-65
2023/04/11 06:56:25;;;;;;;5.28;3.65;;;;;;;11.35;nan;-24133.97;4983467;28;20209;-66
2023/04/11 06:58:50;;;;;;;4.78;3.17;;;;;;;11.36;nan;-24134.41;4977503;28;20294;-65
2023/04/11 07:01:19;;;;;;;13.77;3.70;;;;;;;11.47;nan;-24137.50;4983204;28;20184;-64
2023/04/11 07:03:48;;;;;;;7.03;4.00;;;;;;;9.89;nan;-24093.34;4980790;28;20295;-66
2023/04/11 07:06:15;;;;;;;7.32;3.60;;;;;;;10.19;nan;-24101.81;4983177;28;20185;-65
2023/04/11 07:08:41;;;;;;;5.18;3.83;;;;;;;11.33;nan;-24133.56;4982536;28;20196;-65
2023/04/11 07:11:06;;;;;;;6.20;3.70;;;;;;;11.41;nan;-24135.81;4982320;28;20551;-64
2023/04/11 07:13:32;;;;;;;7.28;4.28;;;;;;;11.45;nan;-24136.81;4982563;28;20196;-66
2023/04/11 07:15:58;;;;;;;6.38;3.75;;;;;;;11.63;nan;-24141.72;4976669;28;20178;-67
2023/04/11 07:18:24;;;;;;;7.15;4.38;;;;;;;11.53;nan;-24139.19;4980158;28;20178;-65
2023/04/11 07:20:51;;;;;;;6.82;3.92;;;;;;;11.82;nan;-24147.22;4980589;28;20211;-64
2023/04/11 07:23:17;;;;;;;9.35;4.53;;;;;;;11.69;nan;-24143.56;4974211;28;20181;-66
2023/04/11 07:25:43;;;;;;;9.30;4.55;;;;;;;12.10;nan;-24154.81;4984789;28;20247;-65
2023/04/11 07:28:10;;;;;;;8.15;4.60;;;;;;;11.82;nan;-24147.09;4973962;28;20178;-66
2023/04/11 07:30:36;;;;;;;8.77;5.40;;;;;;;12.15;nan;-24156.38;4984645;28;20707;-65
2023/04/11 07:33:02;;;;;;;7.03;4.65;;;;;;;11.96;nan;-24151.03;4975588;28;20228;-66
2023/04/11 07:35:27;;;;;;;10.55;4.95;;;;;;;12.24;nan;-24158.91;4983260;28;20215;-65
2023/04/11 07:37:53;;;;;;;8.48;5.40;;;;;;;12.23;nan;-24158.63;4978856;28;20281;-65
2023/04/11 07:40:19;;;;;;;13.05;4.88;;;;;;;12.31;nan;-24160.75;4986021;28;20563;-66
2023/04/11 07:42:47;;;;;;;8.52;4.93;;;;;;;12.47;nan;-24165.25;4981080;28;20188;-67
2023/04/11 07:45:13;;;;;;;9.45;5.30;;;;;;;12.38;nan;-24162.72;4985092;28;20649;-65
2023/04/11 07:47:38;;;;;;;8.68;5.50;;;;;;;12.63;nan;-24169.75;4981417;28;20264;-65
2023/04/11 07:50:04;;;;;;;12.18;5.38;;;;;;;12.52;nan;-24166.66;4998429;28;20209;-65
2023/04/11 07:52:30;;;;;;;10.88;5.05;;;;;;;12.58;nan;-24168.19;4982668;28;20268;-65
2023/04/11 07:54:56;;;;;;;9.32;5.25;;;;;;;12.26;nan;-24159.47;4984326;28;20637;-66
2023/04/11 07:57:21;;;;;;;9.82;5.13;;;;;;;12.38;nan;-24162.84;4983256;28;20182;-66
2023/04/11 07:59:47;;;;;;;8.70;4.93;;;;;;;12.53;nan;-24166.94;4982570;28;20181;-65
2023/04/11 08:02:12;;;;;;;9.05;5.47;;;;;;;12.28;nan;-24159.91;4983089;28;20629;-65
2023/04/11 08:04:38;;;;;;;8.70;5.57;;;;;;;12.84;nan;-24175.50;4982176;28;20204;-67
2023/04/11 08:07:03;;;;;;;7.57;4.78;;;;;;;12.48;nan;-24165.53;4982923;28;20552;-65
2023/04/11 08:09:29;;;;;;;10.68;5.72;;;;;;;12.58;nan;-24168.19;4982655;28;20696;-66
2023/04/11 08:11:55;;;;;;;8.60;5.38;;;;;;;12.58;nan;-24168.19;4983071;28;20185;-66
2023/04/11 08:14:24;;;;;;;10.82;5.35;;;;;;;12.45;nan;-24164.69;4980236;28;20607;-66
2023/04/11 08:16:52;;;;;;;10.10;5.80;;;;;;;12.32;nan;-24161.03;4983637;28;20209;-66
2023/04/11 08:19:18;;;;;;;10.30;5.47;;;;;;;12.80;nan;-24174.38;4980942;28;20217;-65
2023/04/11 08:21:43;;;;;;;9.77;5.47;;;;;;;12.65;nan;-24170.31;4983947;28;20220;-67
2023/04/11 08:24:09;;;;;;;9.00;5.68;;;;;;;12.33;nan;-24161.31;4980223;28;20189;-65
2023/04/11 08:26:34;;;;;;;14.10;5.53;;;;;;;12.55;nan;-24167.34;4987898;28;20188;-67
2023/04/11 08:29:00;;;;;;;14.98;6.18;;;;;;;12.70;nan;-24171.56;4992825;28;20232;-68
2023/04/11 08:31:27;;;;;;;9.70;5.63;;;;;;;12.42;nan;-24163.84;4986023;28;20189;-66
2023/04/11 08:33:52;;;;;;;8.75;5.15;;;;;;;12.85;nan;-24175.78;4991715;28;20192;-66
2023/04/11 08:36:18;;;;;;;8.75;5.13;;;;;;;13.06;nan;-24181.69;4987205;28;20181;-67
2023/04/11 08:38:46;;;;;;;9.35;5.38;;;;;;;12.87;nan;-24176.34;4978864;28;20601;-65
2023/04/11 08:41:13;;;;;;;9.20;5.30;;;;;;;12.65;nan;-24170.16;4986290;28;20177;-65
2023/04/11 08:43:43;;;;;;;13.25;6.38;;;;;;;12.72;nan;-24172.28;4978446;28;20185;-65
2023/04/11 08:46:08;;;;;;;9.73;5.40;;;;;;;12.94;nan;-24178.19;4986231;28;20180;-66
2023/04/11 08:48:34;;;;;;;10.38;5.65;;;;;;;13.03;nan;-24180.84;4977095;28;20767;-65
2023/04/11 08:51:00;;;;;;;10.40;5.50;;;;;;;13.14;nan;-24183.81;4988022;28;20184;-66
2023/04/11 08:53:28;;;;;;;13.73;5.95;;;;;;;13.19;nan;-24185.22;4976429;28;20185;-68
2023/04/11 08:55:53;;;;;;;10.45;5.05;;;;;;;13.08;nan;-24182.25;4988053;28;20197;-66
2023/04/11 08:58:19;;;;;;;8.32;5.18;;;;;;;13.00;nan;-24179.88;4976282;28;20181;-66
2023/04/11 09:00:45;;;;;;;9.35;5.38;;;;;;;13.12;nan;-24183.25;4986858;28;20192;-66
2023/04/11 09:03:14;;;;;;;10.40;5.45;;;;;;;12.98;nan;-24179.44;4976063;28;20181;-67
2023/04/11 09:05:44;;;;;;;10.18;5.70;;;;;;;12.94;nan;-24178.31;4986967;28;20652;-66
2023/04/11 09:08:12;;;;;;;13.23;5.60;;;;;;;12.92;nan;-24177.75;4976192;28;20189;-66
2023/04/11 09:10:40;;;;;;;8.07;4.75;;;;;;;13.04;nan;-24181.00;4981355;28;20192;-66
2023/04/11 09:13:25;;;;;;;8.63;4.90;;;;;;;13.00;nan;-24179.88;4976493;28;20618;-66
2023/04/11 09:16:17;;;;;;;9.18;5.57;;;;;;;13.19;nan;-24185.34;4982872;28;20243;-65
2023/04/11 09:18:45;;;;;;;8.05;5.60;;;;;;;13.21;nan;-24185.78;4975769;28;20207;-66
2023/04/11 09:21:14;;;;;;;12.52;5.10;;;;;;;13.24;nan;-24186.63;4985466;28;20267;-66
2023/04/11 09:23:40;;;;;;;9.98;5.38;;;;;;;13.14;nan;-24183.94;4977417;28;20184;-66
2023/04/11 09:26:07;;;;;;;13.13;5.55;;;;;;;13.32;nan;-24188.88;4986154;28;20267;-66
2023/04/11 09:28:41;;;;;;;8.63;5.03;;;;;;;13.53;nan;-24194.75;4976443;28;20195;-66
2023/04/11 09:31:07;;;;;;;18.85;5.55;;;;;;;13.52;nan;-24194.47;4985848;28;20237;-65
2023/04/11 09:33:33;;;;;;;10.02;5.15;;;;;;;13.94;nan;-24206.13;4976422;28;20199;-65
2023/04/11 09:35:58;;;;;;;8.80;5.05;;;;;;;14.24;nan;-24214.28;4986616;28;20177;-65
2023/04/11 09:38:34;;;;;;;12.20;5.20;;;;;;;13.88;nan;-24204.31;4975326;28;20398;-65
2023/04/11 09:41:01;;;;;;;10.02;5.03;;;;;;;13.42;nan;-24191.53;4981015;28;20184;-67
2023/04/11 09:43:47;;;;;;;10.77;5.70;;;;;;;13.42;nan;-24191.53;4992402;28;20185;-66
2023/04/11 09:46:17;;;;;;;10.30;5.75;;;;;;;13.93;nan;-24205.72;4984359;28;20659;-66
2023/04/11 09:48:43;;;;;;;12.10;5.22;;;;;;;13.97;nan;-24206.97;4976873;28;20668;-67
2023/04/11 09:51:09;;;;;;;10.38;5.15;;;;;;;13.92;nan;-24205.44;4985535;28;20185;-66
2023/04/11 09:53:36;;;;;;;10.45;5.07;;;;;;;13.88;nan;-24204.44;4975291;28;20267;-58
2023/04/11 09:56:02;;;;;;;8.25;5.10;;;;;;;13.96;nan;-24206.69;4985814;28;20648;-59
2023/04/11 09:58:33;;;;;;;9.30;5.05;;;;;;;14.19;nan;-24212.88;4975577;28;20178;-59
2023/04/11 10:01:00;;;;;;;7.85;5.03;;;;;;;14.00;nan;-24207.81;4985495;28;20279;-59
2023/04/11 10:03:26;;;;;;;9.57;5.32;;;;;;;14.28;nan;-24215.53;4974402;28;20185;-59
2023/04/11 10:05:53;;;;;;;8.98;4.68;;;;;;;14.55;nan;-24222.97;4986405;28;20251;-59
2023/04/11 10:08:31;;;;;;;7.53;4.88;;;;;;;14.75;nan;-24228.44;4975547;28;20185;-58
2023/04/11 10:11:01;;;;;;;11.20;5.18;;;;;;;14.67;nan;-24226.19;4985826;28;20705;-58
2023/04/11 10:13:45;;;;;;;8.32;4.95;;;;;;;14.85;nan;-24231.38;4975324;28;20243;-58
2023/04/11 10:16:13;;;;;;;11.10;5.32;;;;;;;15.15;nan;-24239.66;4985041;28;20267;-59
2023/04/11 10:18:50;;;;;;;9.13;4.63;;;;;;;15.21;nan;-24241.19;4977160;28;20200;-59
2023/04/11 10:21:28;;;;;;;6.97;4.57;;;;;;;15.64;nan;-24253.09;4984276;28;20180;-58
2023/04/11 10:24:07;;;;;;;8.38;4.53;;;;;;;15.47;nan;-24248.47;4978190;28;20224;-58
2023/04/11 10:26:56;;;;;;;7.70;4.22;;;;;;;15.67;nan;-24254.06;4983075;28;20238;-59
2023/04/11 10:29:45;;;;;;;9.93;4.65;;;;;;;15.61;nan;-24252.25;4990233;28;20210;-59
2023/04/11 10:32:14;;;;;;;6.00;4.05;;;;;;;15.64;nan;-24253.22;4983932;28;20199;-58
2023/04/11 10:35:00;;;;;;;6.47;4.22;;;;;;;15.81;nan;-24258.00;4988361;28;20239;-59
2023/04/11 10:37:28;;;;;;;7.97;4.47;;;;;;;15.36;nan;-24245.38;4983760;28;20188;-58
2023/04/11 10:39:53;;;;;;;6.35;3.80;;;;;;;15.44;nan;-24247.63;4986672;28;20192;-59
2023/04/11 10:42:29;;;;;;;5.82;4.05;;;;;;;15.60;nan;-24252.13;4981555;28;20637;-60
2023/04/11 10:45:26;;;;;;;6.45;3.95;;;;;;;15.64;nan;-24253.22;4986371;28;20670;-58
2023/04/11 10:47:55;;;;;;;6.75;4.30;;;;;;;15.65;nan;-24253.50;4992049;28;20285;-59
2023/04/11 10:50:27;;;;;;;7.55;4.30;;;;;;;15.78;nan;-24257.16;4986109;28;20227;-59
2023/04/11 10:52:54;;;;;;;8.23;4.28;;;;;;;15.44;nan;-24247.63;4977099;28;20193;-59
2023/04/11 10:55:20;;;;;;;7.28;4.32;;;;;;;15.87;nan;-24259.53;4983363;28;20208;-58
2023/04/11 10:58:08;;;;;;;6.10;3.85;;;;;;;16.17;nan;-24267.78;4978049;28;20182;-58
2023/04/11 11:00:45;;;;;;;9.30;4.65;;;;;;;16.40;nan;-24274.06;4983697;28;20186;-58
2023/04/11 11:03:15;;;;;;;6.25;4.43;;;;;;;16.30;nan;-24271.56;4979063;28;20264;-58
2023/04/11 11:05:41;;;;;;;6.35;4.15;;;;;;;16.22;nan;-24269.31;4982278;28;20185;-58
2023/04/11 11:08:07;;;;;;;7.40;4.32;;;;;;;16.06;nan;-24264.72;4975615;28;20675;-59
2023/04/11 11:10:36;;;;;;;7.60;4.20;;;;;;;16.13;nan;-24266.66;4985832;28;20212;-58
2023/04/11 11:13:02;;;;;;;5.90;3.90;;;;;;;14.17;nan;-24212.44;4980055;28;20664;-59
2023/04/11 11:15:28;;;;;;;7.35;4.47;;;;;;;16.22;nan;-24269.31;4988497;28;20195;-60
2023/04/11 11:17:54;;;;;;;6.47;4.20;;;;;;;16.59;nan;-24279.53;4980806;28;20181;-59
2023/04/11 11:20:20;;;;;;;7.70;4.40;;;;;;;16.51;nan;-24277.16;4986891;28;20543;-59
2023/04/11 11:23:02;;;;;;;6.13;4.28;;;;;;;16.43;nan;-24275.06;4981958;28;20177;-59
2023/04/11 11:25:28;;;;;;;5.90;3.78;;;;;;;16.50;nan;-24277.00;4988250;28;20199;-59
2023/04/11 11:27:58;;;;;;;8.10;4.05;;;;;;;16.52;nan;-24277.56;4980636;28;20603;-59
2023/04/11 11:30:24;;;;;;;8.52;3.90;;;;;;;16.82;nan;-24285.81;4987433;28;20209;-59
2023/04/11 11:32:49;;;;;;;7.25;3.67;;;;;;;16.29;nan;-24271.13;4980924;28;20265;-59
2023/04/11 11:35:15;;;;;;;6.43;3.75;;;;;;;16.32;nan;-24271.97;4986370;28;20555;-59
2023/04/11 11:37:40;;;;;;;6.43;3.80;;;;;;;16.59;nan;-24279.53;4982541;28;20173;-60
2023/04/11 11:40:11;;;;;;;7.32;3.35;;;;;;;16.60;nan;-24279.66;4991483;28;20235;-58
2023/04/11 11:42:39;;;;;;;6.95;3.92;;;;;;;17.00;nan;-24290.84;4995400;28;20173;-60
2023/04/11 11:45:15;;;;;;;6.07;3.92;;;;;;;16.66;nan;-24281.50;4989136;28;20562;-59